sensor_id;sensor_type;location;lat;lon;timestamp;P1;durP1;ratioP1;P2;durP2;ratioP2
75261;SDS011;63859;51.064;4.580;2023-01-01T00:01:09;7.40;;;2.70;;
75261;SDS011;63859;51.064;4.580;2023-01-01T00:03:37;7.85;;;2.90;;
75261;SDS011;63859;51.064;4.580;2023-01-01T00:06:04;11.27;;;2.70;;
75261;SDS011;63859;51.064;4.580;2023-01-01T00:08:38;9.27;;;3.10;;
75261;SDS011;63859;51.064;4.580;2023-01-01T00:11:05;6.97;;;2.45;;
75261;SDS011;63859;51.064;4.580;2023-01-01T00:13:32;10.00;;;2.88;;
75261;SDS011;63859;51.064;4.580;2023-01-01T00:18:37;7.63;;;2.53;;
75261;SDS011;63859;51.064;4.580;2023-01-01T00:21:03;12.43;;;2.60;;
75261;SDS011;63859;51.064;4.580;2023-01-01T00:23:30;9.55;;;2.22;;
75261;SDS011;63859;51.064;4.580;2023-01-01T00:25:57;11.15;;;2.60;;
75261;SDS011;63859;51.064;4.580;2023-01-01T00:28:23;11.38;;;3.08;;
75261;SDS011;63859;51.064;4.580;2023-01-01T00:30:49;8.85;;;2.55;;
75261;SDS011;63859;51.064;4.580;2023-01-01T00:33:14;8.75;;;2.80;;
75261;SDS011;63859;51.064;4.580;2023-01-01T00:35:40;13.27;;;3.42;;
75261;SDS011;63859;51.064;4.580;2023-01-01T00:38:06;12.02;;;3.28;;
75261;SDS011;63859;51.064;4.580;2023-01-01T00:40:31;7.10;;;2.72;;
75261;SDS011;63859;51.064;4.580;2023-01-01T00:42:57;10.15;;;2.70;;
75261;SDS011;63859;51.064;4.580;2023-01-01T00:45:23;12.07;;;3.30;;
75261;SDS011;63859;51.064;4.580;2023-01-01T00:47:49;9.25;;;2.83;;
75261;SDS011;63859;51.064;4.580;2023-01-01T00:50:16;6.55;;;2.70;;
75261;SDS011;63859;51.064;4.580;2023-01-01T00:52:42;5.70;;;2.47;;
75261;SDS011;63859;51.064;4.580;2023-01-01T00:55:08;9.02;;;2.97;;
75261;SDS011;63859;51.064;4.580;2023-01-01T00:57:35;8.07;;;2.60;;
75261;SDS011;63859;51.064;4.580;2023-01-01T01:00:00;10.13;;;2.50;;
75261;SDS011;63859;51.064;4.580;2023-01-01T01:02:26;5.85;;;2.97;;
75261;SDS011;63859;51.064;4.580;2023-01-01T01:04:52;5.70;;;2.67;;
75261;SDS011;63859;51.064;4.580;2023-01-01T01:07:17;10.95;;;3.70;;
75261;SDS011;63859;51.064;4.580;2023-01-01T01:09:43;11.55;;;2.95;;
75261;SDS011;63859;51.064;4.580;2023-01-01T01:12:08;11.55;;;2.67;;
75261;SDS011;63859;51.064;4.580;2023-01-01T01:14:34;7.38;;;2.65;;
75261;SDS011;63859;51.064;4.580;2023-01-01T01:17:00;12.45;;;2.80;;
75261;SDS011;63859;51.064;4.580;2023-01-01T01:19:25;8.95;;;2.92;;
75261;SDS011;63859;51.064;4.580;2023-01-01T01:21:51;6.93;;;2.70;;
75261;SDS011;63859;51.064;4.580;2023-01-01T01:24:17;13.23;;;3.00;;
75261;SDS011;63859;51.064;4.580;2023-01-01T01:26:42;5.38;;;2.70;;
75261;SDS011;63859;51.064;4.580;2023-01-01T01:29:08;9.13;;;2.92;;
75261;SDS011;63859;51.064;4.580;2023-01-01T01:31:34;7.85;;;2.60;;
75261;SDS011;63859;51.064;4.580;2023-01-01T01:34:00;9.15;;;2.63;;
75261;SDS011;63859;51.064;4.580;2023-01-01T01:36:26;9.10;;;2.70;;
75261;SDS011;63859;51.064;4.580;2023-01-01T01:38:52;7.82;;;2.55;;
75261;SDS011;63859;51.064;4.580;2023-01-01T01:41:19;11.80;;;2.40;;
75261;SDS011;63859;51.064;4.580;2023-01-01T01:44:05;4.93;;;2.28;;
75261;SDS011;63859;51.064;4.580;2023-01-01T01:46:51;9.55;;;2.72;;
75261;SDS011;63859;51.064;4.580;2023-01-01T01:49:20;8.02;;;2.80;;
75261;SDS011;63859;51.064;4.580;2023-01-01T01:51:52;10.20;;;2.60;;
75261;SDS011;63859;51.064;4.580;2023-01-01T01:54:20;7.90;;;2.30;;
75261;SDS011;63859;51.064;4.580;2023-01-01T01:59:24;5.80;;;2.20;;
75261;SDS011;63859;51.064;4.580;2023-01-01T02:01:54;5.63;;;2.03;;
75261;SDS011;63859;51.064;4.580;2023-01-01T02:04:20;5.50;;;2.40;;
75261;SDS011;63859;51.064;4.580;2023-01-01T02:06:46;5.18;;;2.17;;
75261;SDS011;63859;51.064;4.580;2023-01-01T02:09:12;11.50;;;2.40;;
75261;SDS011;63859;51.064;4.580;2023-01-01T02:11:38;7.90;;;2.30;;
75261;SDS011;63859;51.064;4.580;2023-01-01T02:14:03;8.32;;;2.30;;
75261;SDS011;63859;51.064;4.580;2023-01-01T02:19:39;10.77;;;2.22;;
75261;SDS011;63859;51.064;4.580;2023-01-01T02:22:14;9.30;;;2.22;;
75261;SDS011;63859;51.064;4.580;2023-01-01T02:27:48;6.57;;;1.73;;
75261;SDS011;63859;51.064;4.580;2023-01-01T02:30:19;8.73;;;2.20;;
75261;SDS011;63859;51.064;4.580;2023-01-01T02:32:46;5.32;;;2.15;;
75261;SDS011;63859;51.064;4.580;2023-01-01T02:35:27;6.78;;;2.03;;
75261;SDS011;63859;51.064;4.580;2023-01-01T02:38:03;5.68;;;2.17;;
75261;SDS011;63859;51.064;4.580;2023-01-01T02:40:33;12.88;;;2.40;;
75261;SDS011;63859;51.064;4.580;2023-01-01T02:43:02;6.57;;;2.13;;
75261;SDS011;63859;51.064;4.580;2023-01-01T02:45:28;5.32;;;2.13;;
75261;SDS011;63859;51.064;4.580;2023-01-01T02:47:55;9.25;;;2.40;;
75261;SDS011;63859;51.064;4.580;2023-01-01T02:50:21;10.02;;;2.00;;
75261;SDS011;63859;51.064;4.580;2023-01-01T03:00:57;9.77;;;2.47;;
75261;SDS011;63859;51.064;4.580;2023-01-01T03:03:37;4.57;;;2.10;;
75261;SDS011;63859;51.064;4.580;2023-01-01T03:08:52;5.07;;;2.17;;
75261;SDS011;63859;51.064;4.580;2023-01-01T03:11:20;6.00;;;2.25;;
75261;SDS011;63859;51.064;4.580;2023-01-01T03:19:07;6.85;;;1.98;;
75261;SDS011;63859;51.064;4.580;2023-01-01T03:21:51;7.75;;;2.30;;
75261;SDS011;63859;51.064;4.580;2023-01-01T03:24:49;5.88;;;2.30;;
75261;SDS011;63859;51.064;4.580;2023-01-01T03:27:21;10.93;;;2.55;;
75261;SDS011;63859;51.064;4.580;2023-01-01T03:29:52;6.43;;;2.03;;
75261;SDS011;63859;51.064;4.580;2023-01-01T03:32:24;9.80;;;2.83;;
75261;SDS011;63859;51.064;4.580;2023-01-01T03:35:19;8.30;;;2.25;;
75261;SDS011;63859;51.064;4.580;2023-01-01T03:37:49;9.98;;;2.53;;
75261;SDS011;63859;51.064;4.580;2023-01-01T03:40:17;7.57;;;2.20;;
75261;SDS011;63859;51.064;4.580;2023-01-01T03:42:47;11.93;;;2.63;;
75261;SDS011;63859;51.064;4.580;2023-01-01T03:45:32;5.55;;;2.28;;
75261;SDS011;63859;51.064;4.580;2023-01-01T03:48:03;8.98;;;2.30;;
75261;SDS011;63859;51.064;4.580;2023-01-01T03:50:34;7.50;;;2.20;;
75261;SDS011;63859;51.064;4.580;2023-01-01T03:58:57;6.85;;;2.35;;
75261;SDS011;63859;51.064;4.580;2023-01-01T04:01:32;5.45;;;2.22;;
75261;SDS011;63859;51.064;4.580;2023-01-01T04:04:04;8.95;;;2.50;;
75261;SDS011;63859;51.064;4.580;2023-01-01T04:06:31;9.00;;;2.35;;
75261;SDS011;63859;51.064;4.580;2023-01-01T04:08:58;4.97;;;2.42;;
75261;SDS011;63859;51.064;4.580;2023-01-01T04:11:27;5.20;;;2.13;;
75261;SDS011;63859;51.064;4.580;2023-01-01T04:14:13;8.45;;;2.63;;
75261;SDS011;63859;51.064;4.580;2023-01-01T04:16:49;9.18;;;3.03;;
75261;SDS011;63859;51.064;4.580;2023-01-01T04:19:15;6.72;;;2.25;;
75261;SDS011;63859;51.064;4.580;2023-01-01T04:21:40;11.80;;;2.70;;
75261;SDS011;63859;51.064;4.580;2023-01-01T04:24:06;7.43;;;2.35;;
75261;SDS011;63859;51.064;4.580;2023-01-01T04:26:31;12.40;;;2.90;;
75261;SDS011;63859;51.064;4.580;2023-01-01T04:28:57;10.98;;;2.50;;
75261;SDS011;63859;51.064;4.580;2023-01-01T04:31:22;7.78;;;2.45;;
75261;SDS011;63859;51.064;4.580;2023-01-01T04:33:51;4.55;;;2.10;;
75261;SDS011;63859;51.064;4.580;2023-01-01T04:36:17;6.97;;;2.47;;
75261;SDS011;63859;51.064;4.580;2023-01-01T04:38:43;5.85;;;2.60;;
75261;SDS011;63859;51.064;4.580;2023-01-01T04:41:09;8.02;;;2.47;;
75261;SDS011;63859;51.064;4.580;2023-01-01T04:43:34;6.40;;;2.63;;
75261;SDS011;63859;51.064;4.580;2023-01-01T04:46:01;8.65;;;2.40;;
75261;SDS011;63859;51.064;4.580;2023-01-01T04:48:28;5.70;;;2.28;;
75261;SDS011;63859;51.064;4.580;2023-01-01T04:50:58;10.13;;;2.50;;
75261;SDS011;63859;51.064;4.580;2023-01-01T04:53:27;5.82;;;2.42;;
75261;SDS011;63859;51.064;4.580;2023-01-01T04:55:54;6.22;;;2.55;;
75261;SDS011;63859;51.064;4.580;2023-01-01T04:58:19;11.27;;;2.60;;
75261;SDS011;63859;51.064;4.580;2023-01-01T05:00:50;5.53;;;2.40;;
75261;SDS011;63859;51.064;4.580;2023-01-01T05:03:16;10.98;;;2.70;;
75261;SDS011;63859;51.064;4.580;2023-01-01T05:05:42;7.20;;;2.38;;
75261;SDS011;63859;51.064;4.580;2023-01-01T05:08:08;10.20;;;2.80;;
75261;SDS011;63859;51.064;4.580;2023-01-01T05:10:33;8.30;;;2.55;;
75261;SDS011;63859;51.064;4.580;2023-01-01T05:12:59;6.40;;;2.38;;
75261;SDS011;63859;51.064;4.580;2023-01-01T05:15:24;7.65;;;2.70;;
75261;SDS011;63859;51.064;4.580;2023-01-01T05:17:50;8.32;;;2.42;;
75261;SDS011;63859;51.064;4.580;2023-01-01T05:20:16;10.63;;;2.85;;
75261;SDS011;63859;51.064;4.580;2023-01-01T05:22:41;8.05;;;2.53;;
75261;SDS011;63859;51.064;4.580;2023-01-01T05:25:09;9.80;;;2.70;;
75261;SDS011;63859;51.064;4.580;2023-01-01T05:27:34;13.45;;;2.60;;
75261;SDS011;63859;51.064;4.580;2023-01-01T05:30:00;12.10;;;2.80;;
75261;SDS011;63859;51.064;4.580;2023-01-01T05:32:25;7.93;;;2.50;;
75261;SDS011;63859;51.064;4.580;2023-01-01T05:34:52;9.68;;;2.50;;
75261;SDS011;63859;51.064;4.580;2023-01-01T05:37:18;12.00;;;2.55;;
75261;SDS011;63859;51.064;4.580;2023-01-01T05:39:43;11.82;;;2.90;;
75261;SDS011;63859;51.064;4.580;2023-01-01T05:42:09;8.05;;;2.47;;
75261;SDS011;63859;51.064;4.580;2023-01-01T05:44:35;8.02;;;2.72;;
75261;SDS011;63859;51.064;4.580;2023-01-01T05:47:00;13.48;;;3.13;;
75261;SDS011;63859;51.064;4.580;2023-01-01T05:49:26;6.43;;;2.38;;
75261;SDS011;63859;51.064;4.580;2023-01-01T05:51:52;10.52;;;2.85;;
75261;SDS011;63859;51.064;4.580;2023-01-01T05:54:17;10.38;;;2.63;;
75261;SDS011;63859;51.064;4.580;2023-01-01T05:56:43;6.25;;;2.60;;
75261;SDS011;63859;51.064;4.580;2023-01-01T05:59:09;6.20;;;2.17;;
75261;SDS011;63859;51.064;4.580;2023-01-01T06:01:35;12.68;;;2.70;;
75261;SDS011;63859;51.064;4.580;2023-01-01T06:04:00;8.75;;;2.83;;
75261;SDS011;63859;51.064;4.580;2023-01-01T06:06:27;13.80;;;2.65;;
75261;SDS011;63859;51.064;4.580;2023-01-01T06:08:58;8.55;;;2.40;;
75261;SDS011;63859;51.064;4.580;2023-01-01T06:11:25;6.65;;;2.22;;
75261;SDS011;63859;51.064;4.580;2023-01-01T06:13:52;9.38;;;2.45;;
75261;SDS011;63859;51.064;4.580;2023-01-01T06:16:19;10.98;;;2.80;;
75261;SDS011;63859;51.064;4.580;2023-01-01T06:18:44;11.82;;;3.00;;
75261;SDS011;63859;51.064;4.580;2023-01-01T06:21:11;13.20;;;2.42;;
75261;SDS011;63859;51.064;4.580;2023-01-01T06:23:39;10.23;;;2.90;;
75261;SDS011;63859;51.064;4.580;2023-01-01T06:26:08;9.80;;;2.55;;
75261;SDS011;63859;51.064;4.580;2023-01-01T06:28:36;7.95;;;2.63;;
75261;SDS011;63859;51.064;4.580;2023-01-01T06:31:03;6.90;;;2.38;;
75261;SDS011;63859;51.064;4.580;2023-01-01T06:33:30;7.38;;;2.55;;
75261;SDS011;63859;51.064;4.580;2023-01-01T06:35:56;8.18;;;2.30;;
75261;SDS011;63859;51.064;4.580;2023-01-01T06:38:22;10.20;;;3.25;;
75261;SDS011;63859;51.064;4.580;2023-01-01T06:41:01;12.18;;;2.50;;
75261;SDS011;63859;51.064;4.580;2023-01-01T06:43:41;9.65;;;2.80;;
75261;SDS011;63859;51.064;4.580;2023-01-01T06:46:15;7.45;;;2.40;;
75261;SDS011;63859;51.064;4.580;2023-01-01T06:48:52;9.70;;;2.88;;
75261;SDS011;63859;51.064;4.580;2023-01-01T06:51:20;6.57;;;2.70;;
75261;SDS011;63859;51.064;4.580;2023-01-01T06:53:48;8.93;;;2.45;;
75261;SDS011;63859;51.064;4.580;2023-01-01T06:56:14;6.53;;;2.17;;
75261;SDS011;63859;51.064;4.580;2023-01-01T06:58:40;7.93;;;2.60;;
75261;SDS011;63859;51.064;4.580;2023-01-01T07:01:08;12.65;;;2.72;;
75261;SDS011;63859;51.064;4.580;2023-01-01T07:03:44;8.40;;;2.40;;
75261;SDS011;63859;51.064;4.580;2023-01-01T07:06:14;8.60;;;3.13;;
75261;SDS011;63859;51.064;4.580;2023-01-01T07:08:40;10.50;;;2.90;;
75261;SDS011;63859;51.064;4.580;2023-01-01T07:11:06;8.43;;;2.70;;
75261;SDS011;63859;51.064;4.580;2023-01-01T07:13:31;8.73;;;2.60;;
75261;SDS011;63859;51.064;4.580;2023-01-01T07:15:57;12.00;;;3.08;;
75261;SDS011;63859;51.064;4.580;2023-01-01T07:18:23;10.60;;;2.97;;
75261;SDS011;63859;51.064;4.580;2023-01-01T07:20:59;12.27;;;3.03;;
75261;SDS011;63859;51.064;4.580;2023-01-01T07:23:27;13.32;;;2.85;;
75261;SDS011;63859;51.064;4.580;2023-01-01T07:25:55;12.73;;;3.70;;
75261;SDS011;63859;51.064;4.580;2023-01-01T07:28:21;9.60;;;3.35;;
75261;SDS011;63859;51.064;4.580;2023-01-01T07:30:48;16.00;;;3.40;;
75261;SDS011;63859;51.064;4.580;2023-01-01T07:33:15;11.03;;;3.50;;
75261;SDS011;63859;51.064;4.580;2023-01-01T07:35:42;9.43;;;3.20;;
75261;SDS011;63859;51.064;4.580;2023-01-01T07:38:12;13.10;;;3.20;;
75261;SDS011;63859;51.064;4.580;2023-01-01T07:40:38;10.48;;;3.03;;
75261;SDS011;63859;51.064;4.580;2023-01-01T07:43:05;11.40;;;3.17;;
75261;SDS011;63859;51.064;4.580;2023-01-01T07:45:31;9.05;;;3.60;;
75261;SDS011;63859;51.064;4.580;2023-01-01T07:47:58;12.45;;;3.70;;
75261;SDS011;63859;51.064;4.580;2023-01-01T07:50:25;8.93;;;2.95;;
75261;SDS011;63859;51.064;4.580;2023-01-01T07:52:53;17.25;;;3.53;;
75261;SDS011;63859;51.064;4.580;2023-01-01T07:55:19;6.97;;;3.00;;
75261;SDS011;63859;51.064;4.580;2023-01-01T07:57:44;12.15;;;3.20;;
75261;SDS011;63859;51.064;4.580;2023-01-01T08:00:11;12.27;;;3.75;;
75261;SDS011;63859;51.064;4.580;2023-01-01T08:02:39;12.43;;;3.40;;
75261;SDS011;63859;51.064;4.580;2023-01-01T08:05:05;14.13;;;3.53;;
75261;SDS011;63859;51.064;4.580;2023-01-01T08:07:31;12.65;;;4.07;;
75261;SDS011;63859;51.064;4.580;2023-01-01T08:09:57;9.40;;;3.30;;
75261;SDS011;63859;51.064;4.580;2023-01-01T08:12:23;13.90;;;3.33;;
75261;SDS011;63859;51.064;4.580;2023-01-01T08:14:50;8.75;;;3.35;;
75261;SDS011;63859;51.064;4.580;2023-01-01T08:17:15;8.73;;;3.20;;
75261;SDS011;63859;51.064;4.580;2023-01-01T08:19:41;13.33;;;4.23;;
75261;SDS011;63859;51.064;4.580;2023-01-01T08:22:08;13.52;;;3.15;;
75261;SDS011;63859;51.064;4.580;2023-01-01T08:24:34;10.15;;;3.38;;
75261;SDS011;63859;51.064;4.580;2023-01-01T08:27:00;13.15;;;3.70;;
75261;SDS011;63859;51.064;4.580;2023-01-01T08:29:25;7.90;;;3.50;;
75261;SDS011;63859;51.064;4.580;2023-01-01T08:31:51;12.63;;;2.80;;
75261;SDS011;63859;51.064;4.580;2023-01-01T08:34:16;14.60;;;3.63;;
75261;SDS011;63859;51.064;4.580;2023-01-01T08:36:42;9.88;;;3.28;;
75261;SDS011;63859;51.064;4.580;2023-01-01T08:39:08;17.95;;;3.50;;
75261;SDS011;63859;51.064;4.580;2023-01-01T08:41:33;10.68;;;3.13;;
75261;SDS011;63859;51.064;4.580;2023-01-01T08:43:59;5.82;;;2.90;;
75261;SDS011;63859;51.064;4.580;2023-01-01T08:46:25;9.10;;;3.42;;
75261;SDS011;63859;51.064;4.580;2023-01-01T08:48:50;12.15;;;3.05;;
75261;SDS011;63859;51.064;4.580;2023-01-01T08:51:16;14.07;;;3.33;;
75261;SDS011;63859;51.064;4.580;2023-01-01T08:53:42;11.88;;;3.60;;
75261;SDS011;63859;51.064;4.580;2023-01-01T08:56:08;15.75;;;3.65;;
75261;SDS011;63859;51.064;4.580;2023-01-01T08:58:36;10.10;;;3.10;;
75261;SDS011;63859;51.064;4.580;2023-01-01T09:01:04;7.72;;;3.10;;
75261;SDS011;63859;51.064;4.580;2023-01-01T09:03:30;9.15;;;3.20;;
75261;SDS011;63859;51.064;4.580;2023-01-01T09:05:56;12.82;;;3.42;;
75261;SDS011;63859;51.064;4.580;2023-01-01T09:08:22;10.25;;;3.30;;
75261;SDS011;63859;51.064;4.580;2023-01-01T09:10:48;11.63;;;3.03;;
75261;SDS011;63859;51.064;4.580;2023-01-01T09:13:15;18.20;;;3.92;;
75261;SDS011;63859;51.064;4.580;2023-01-01T09:15:42;9.55;;;2.90;;
75261;SDS011;63859;51.064;4.580;2023-01-01T09:18:08;11.20;;;3.30;;
75261;SDS011;63859;51.064;4.580;2023-01-01T09:20:35;10.70;;;3.20;;
75261;SDS011;63859;51.064;4.580;2023-01-01T09:23:01;11.50;;;3.30;;
75261;SDS011;63859;51.064;4.580;2023-01-01T09:25:26;9.98;;;2.70;;
75261;SDS011;63859;51.064;4.580;2023-01-01T09:27:56;9.55;;;2.75;;
75261;SDS011;63859;51.064;4.580;2023-01-01T09:30:29;15.68;;;3.53;;
75261;SDS011;63859;51.064;4.580;2023-01-01T09:32:55;13.35;;;3.22;;
75261;SDS011;63859;51.064;4.580;2023-01-01T09:35:21;10.65;;;3.10;;
75261;SDS011;63859;51.064;4.580;2023-01-01T09:37:47;13.43;;;3.63;;
75261;SDS011;63859;51.064;4.580;2023-01-01T09:40:35;9.30;;;2.83;;
75261;SDS011;63859;51.064;4.580;2023-01-01T09:46:04;12.32;;;2.95;;
75261;SDS011;63859;51.064;4.580;2023-01-01T09:48:32;9.23;;;3.20;;
75261;SDS011;63859;51.064;4.580;2023-01-01T09:51:00;11.20;;;3.03;;
75261;SDS011;63859;51.064;4.580;2023-01-01T09:53:30;11.90;;;3.33;;
75261;SDS011;63859;51.064;4.580;2023-01-01T09:56:02;12.25;;;3.17;;
75261;SDS011;63859;51.064;4.580;2023-01-01T09:58:32;9.25;;;2.90;;
75261;SDS011;63859;51.064;4.580;2023-01-01T10:01:05;9.43;;;3.25;;
75261;SDS011;63859;51.064;4.580;2023-01-01T10:03:53;9.50;;;3.15;;
75261;SDS011;63859;51.064;4.580;2023-01-01T10:06:56;10.95;;;3.03;;
75261;SDS011;63859;51.064;4.580;2023-01-01T10:09:45;9.23;;;2.75;;
75261;SDS011;63859;51.064;4.580;2023-01-01T10:12:30;10.20;;;2.97;;
75261;SDS011;63859;51.064;4.580;2023-01-01T10:15:11;11.90;;;2.78;;
75261;SDS011;63859;51.064;4.580;2023-01-01T10:17:48;15.68;;;2.97;;
75261;SDS011;63859;51.064;4.580;2023-01-01T10:20:19;15.77;;;3.10;;
75261;SDS011;63859;51.064;4.580;2023-01-01T10:22:53;10.40;;;3.03;;
75261;SDS011;63859;51.064;4.580;2023-01-01T10:25:25;9.27;;;3.13;;
75261;SDS011;63859;51.064;4.580;2023-01-01T10:27:57;16.50;;;3.45;;
75261;SDS011;63859;51.064;4.580;2023-01-01T10:30:27;10.30;;;3.25;;
75261;SDS011;63859;51.064;4.580;2023-01-01T10:32:54;10.70;;;2.80;;
75261;SDS011;63859;51.064;4.580;2023-01-01T10:35:22;10.27;;;2.97;;
75261;SDS011;63859;51.064;4.580;2023-01-01T10:38:00;12.48;;;3.05;;
75261;SDS011;63859;51.064;4.580;2023-01-01T10:40:28;9.70;;;2.42;;
75261;SDS011;63859;51.064;4.580;2023-01-01T10:42:55;11.48;;;2.65;;
75261;SDS011;63859;51.064;4.580;2023-01-01T10:45:39;11.95;;;3.10;;
75261;SDS011;63859;51.064;4.580;2023-01-01T10:48:17;10.43;;;2.50;;
75261;SDS011;63859;51.064;4.580;2023-01-01T10:50:47;8.88;;;2.97;;
75261;SDS011;63859;51.064;4.580;2023-01-01T11:01:02;11.60;;;3.03;;
75261;SDS011;63859;51.064;4.580;2023-01-01T11:03:29;16.40;;;2.85;;
75261;SDS011;63859;51.064;4.580;2023-01-01T11:06:08;11.10;;;3.40;;
75261;SDS011;63859;51.064;4.580;2023-01-01T11:08:47;7.88;;;2.97;;
75261;SDS011;63859;51.064;4.580;2023-01-01T11:11:31;10.55;;;2.90;;
75261;SDS011;63859;51.064;4.580;2023-01-01T11:14:03;7.60;;;2.40;;
75261;SDS011;63859;51.064;4.580;2023-01-01T11:16:30;7.47;;;2.13;;
75261;SDS011;63859;51.064;4.580;2023-01-01T11:19:00;12.15;;;2.70;;
75261;SDS011;63859;51.064;4.580;2023-01-01T11:21:30;12.88;;;3.45;;
75261;SDS011;63859;51.064;4.580;2023-01-01T11:29:46;12.57;;;2.80;;
75261;SDS011;63859;51.064;4.580;2023-01-01T11:32:32;9.73;;;2.50;;
75261;SDS011;63859;51.064;4.580;2023-01-01T11:35:00;10.45;;;2.90;;
75261;SDS011;63859;51.064;4.580;2023-01-01T11:37:30;10.93;;;3.10;;
75261;SDS011;63859;51.064;4.580;2023-01-01T11:40:00;12.85;;;3.20;;
75261;SDS011;63859;51.064;4.580;2023-01-01T11:42:28;12.85;;;2.88;;
75261;SDS011;63859;51.064;4.580;2023-01-01T11:45:05;10.57;;;3.00;;
75261;SDS011;63859;51.064;4.580;2023-01-01T11:47:37;12.25;;;3.00;;
75261;SDS011;63859;51.064;4.580;2023-01-01T11:52:56;12.43;;;2.85;;
75261;SDS011;63859;51.064;4.580;2023-01-01T11:55:41;12.43;;;3.50;;
75261;SDS011;63859;51.064;4.580;2023-01-01T11:58:23;10.00;;;2.85;;
75261;SDS011;63859;51.064;4.580;2023-01-01T12:00:52;13.00;;;3.33;;
75261;SDS011;63859;51.064;4.580;2023-01-01T12:03:24;14.25;;;3.50;;
75261;SDS011;63859;51.064;4.580;2023-01-01T12:08:51;13.43;;;2.85;;
75261;SDS011;63859;51.064;4.580;2023-01-01T12:11:34;14.98;;;3.15;;
75261;SDS011;63859;51.064;4.580;2023-01-01T12:17:00;13.68;;;3.22;;
75261;SDS011;63859;51.064;4.580;2023-01-01T12:19:39;9.93;;;2.60;;
75261;SDS011;63859;51.064;4.580;2023-01-01T12:22:16;10.00;;;2.80;;
75261;SDS011;63859;51.064;4.580;2023-01-01T12:24:42;10.73;;;2.88;;
75261;SDS011;63859;51.064;4.580;2023-01-01T12:30:23;10.68;;;2.72;;
75261;SDS011;63859;51.064;4.580;2023-01-01T12:33:17;13.45;;;2.97;;
75261;SDS011;63859;51.064;4.580;2023-01-01T12:46:46;12.45;;;2.75;;
75261;SDS011;63859;51.064;4.580;2023-01-01T12:49:38;8.50;;;3.10;;
75261;SDS011;63859;51.064;4.580;2023-01-01T13:00:12;10.05;;;2.92;;
75261;SDS011;63859;51.064;4.580;2023-01-01T13:03:26;7.88;;;2.58;;
75261;SDS011;63859;51.064;4.580;2023-01-01T13:05:39;8.80;;;2.83;;
75261;SDS011;63859;51.064;4.580;2023-01-01T13:08:07;10.88;;;2.85;;
75261;SDS011;63859;51.064;4.580;2023-01-01T13:12:59;13.02;;;2.80;;
75261;SDS011;63859;51.064;4.580;2023-01-01T13:18:04;13.32;;;3.15;;
75261;SDS011;63859;51.064;4.580;2023-01-01T13:20:38;14.82;;;3.13;;
75261;SDS011;63859;51.064;4.580;2023-01-01T13:23:26;15.73;;;3.38;;
75261;SDS011;63859;51.064;4.580;2023-01-01T13:42:37;11.35;;;3.85;;
75261;SDS011;63859;51.064;4.580;2023-01-01T13:50:39;9.80;;;3.60;;
75261;SDS011;63859;51.064;4.580;2023-01-01T13:53:21;13.25;;;3.65;;
75261;SDS011;63859;51.064;4.580;2023-01-01T13:58:35;14.45;;;3.60;;
75261;SDS011;63859;51.064;4.580;2023-01-01T14:04:05;10.38;;;3.33;;
75261;SDS011;63859;51.064;4.580;2023-01-01T14:06:45;14.27;;;4.28;;
75261;SDS011;63859;51.064;4.580;2023-01-01T14:09:15;14.23;;;3.22;;
75261;SDS011;63859;51.064;4.580;2023-01-01T14:11:44;19.65;;;3.53;;
75261;SDS011;63859;51.064;4.580;2023-01-01T14:14:22;11.88;;;3.08;;
75261;SDS011;63859;51.064;4.580;2023-01-01T14:16:51;16.38;;;3.20;;
75261;SDS011;63859;51.064;4.580;2023-01-01T14:19:25;14.57;;;3.63;;
75261;SDS011;63859;51.064;4.580;2023-01-01T14:21:51;12.68;;;3.05;;
75261;SDS011;63859;51.064;4.580;2023-01-01T14:24:18;10.27;;;3.00;;
75261;SDS011;63859;51.064;4.580;2023-01-01T14:26:46;13.32;;;3.38;;
75261;SDS011;63859;51.064;4.580;2023-01-01T14:29:20;11.75;;;2.83;;
75261;SDS011;63859;51.064;4.580;2023-01-01T14:31:56;10.35;;;3.22;;
75261;SDS011;63859;51.064;4.580;2023-01-01T14:34:30;16.45;;;2.92;;
75261;SDS011;63859;51.064;4.580;2023-01-01T14:36:58;8.95;;;3.13;;
75261;SDS011;63859;51.064;4.580;2023-01-01T14:41:51;10.13;;;3.47;;
75261;SDS011;63859;51.064;4.580;2023-01-01T14:44:18;7.15;;;2.90;;
75261;SDS011;63859;51.064;4.580;2023-01-01T14:46:50;11.32;;;3.03;;
75261;SDS011;63859;51.064;4.580;2023-01-01T14:49:18;16.77;;;3.15;;
75261;SDS011;63859;51.064;4.580;2023-01-01T14:51:53;12.38;;;3.15;;
75261;SDS011;63859;51.064;4.580;2023-01-01T14:54:21;14.10;;;3.10;;
75261;SDS011;63859;51.064;4.580;2023-01-01T14:56:51;14.55;;;3.60;;
75261;SDS011;63859;51.064;4.580;2023-01-01T14:59:22;9.98;;;3.00;;
75261;SDS011;63859;51.064;4.580;2023-01-01T15:04:27;15.70;;;3.35;;
75261;SDS011;63859;51.064;4.580;2023-01-01T15:06:57;11.60;;;3.78;;
75261;SDS011;63859;51.064;4.580;2023-01-01T15:09:25;10.77;;;3.47;;
75261;SDS011;63859;51.064;4.580;2023-01-01T15:11:52;14.75;;;4.25;;
75261;SDS011;63859;51.064;4.580;2023-01-01T15:17:04;12.00;;;3.15;;
75261;SDS011;63859;51.064;4.580;2023-01-01T15:19:31;10.32;;;2.95;;
75261;SDS011;63859;51.064;4.580;2023-01-01T15:21:59;10.10;;;3.10;;
75261;SDS011;63859;51.064;4.580;2023-01-01T15:24:25;13.70;;;3.42;;
75261;SDS011;63859;51.064;4.580;2023-01-01T15:26:57;11.10;;;3.10;;
75261;SDS011;63859;51.064;4.580;2023-01-01T15:29:37;10.07;;;3.42;;
75261;SDS011;63859;51.064;4.580;2023-01-01T15:32:09;12.52;;;3.17;;
75261;SDS011;63859;51.064;4.580;2023-01-01T15:34:41;11.45;;;3.38;;
75261;SDS011;63859;51.064;4.580;2023-01-01T15:39:45;11.82;;;3.53;;
75261;SDS011;63859;51.064;4.580;2023-01-01T15:42:35;10.45;;;3.45;;
75261;SDS011;63859;51.064;4.580;2023-01-01T15:45:16;10.70;;;3.35;;
75261;SDS011;63859;51.064;4.580;2023-01-01T15:47:43;10.30;;;3.05;;
75261;SDS011;63859;51.064;4.580;2023-01-01T15:50:11;12.43;;;2.97;;
75261;SDS011;63859;51.064;4.580;2023-01-01T15:52:43;9.73;;;2.90;;
75261;SDS011;63859;51.064;4.580;2023-01-01T15:55:13;6.57;;;2.40;;
75261;SDS011;63859;51.064;4.580;2023-01-01T15:57:43;9.30;;;2.33;;
75261;SDS011;63859;51.064;4.580;2023-01-01T16:00:17;9.43;;;2.87;;
75261;SDS011;63859;51.064;4.580;2023-01-01T16:02:44;11.73;;;2.90;;
75261;SDS011;63859;51.064;4.580;2023-01-01T16:05:14;8.23;;;2.60;;
75261;SDS011;63859;51.064;4.580;2023-01-01T16:07:42;6.22;;;2.47;;
75261;SDS011;63859;51.064;4.580;2023-01-01T16:10:15;7.95;;;2.80;;
75261;SDS011;63859;51.064;4.580;2023-01-01T16:12:41;9.63;;;2.10;;
75261;SDS011;63859;51.064;4.580;2023-01-01T16:15:08;4.93;;;2.13;;
75261;SDS011;63859;51.064;4.580;2023-01-01T16:17:39;7.38;;;2.20;;
75261;SDS011;63859;51.064;4.580;2023-01-01T16:20:05;6.47;;;2.40;;
75261;SDS011;63859;51.064;4.580;2023-01-01T16:22:31;4.50;;;1.92;;
75261;SDS011;63859;51.064;4.580;2023-01-01T16:24:57;7.22;;;2.13;;
75261;SDS011;63859;51.064;4.580;2023-01-01T16:27:23;6.37;;;2.60;;
75261;SDS011;63859;51.064;4.580;2023-01-01T16:29:48;9.37;;;2.43;;
75261;SDS011;63859;51.064;4.580;2023-01-01T16:32:15;9.10;;;3.77;;
75261;SDS011;63859;51.064;4.580;2023-01-01T16:34:42;10.00;;;3.50;;
75261;SDS011;63859;51.064;4.580;2023-01-01T16:37:08;6.18;;;2.58;;
75261;SDS011;63859;51.064;4.580;2023-01-01T16:39:33;7.05;;;2.90;;
75261;SDS011;63859;51.064;4.580;2023-01-01T16:41:59;6.37;;;2.73;;
75261;SDS011;63859;51.064;4.580;2023-01-01T16:44:24;7.10;;;2.53;;
75261;SDS011;63859;51.064;4.580;2023-01-01T16:46:50;13.38;;;2.80;;
75261;SDS011;63859;51.064;4.580;2023-01-01T16:49:16;12.43;;;3.50;;
75261;SDS011;63859;51.064;4.580;2023-01-01T16:51:41;12.80;;;3.27;;
75261;SDS011;63859;51.064;4.580;2023-01-01T16:54:07;11.27;;;5.50;;
75261;SDS011;63859;51.064;4.580;2023-01-01T16:56:32;15.47;;;4.70;;
75261;SDS011;63859;51.064;4.580;2023-01-01T16:58:58;10.63;;;4.30;;